createdAt,value
2022-08-14T00:02:01.526Z,16.70
2022-08-14T00:04:35.763Z,16.67
2022-08-14T00:07:10.718Z,16.65
2022-08-14T00:10:02.023Z,16.64
2022-08-14T00:12:33.447Z,16.61
2022-08-14T00:15:19.303Z,16.57
2022-08-14T00:17:53.293Z,16.53
2022-08-14T00:20:30.254Z,16.50
2022-08-14T00:23:12.059Z,16.45
2022-08-14T00:25:54.085Z,16.43
2022-08-14T00:28:35.542Z,16.30
2022-08-14T00:31:08.113Z,16.37
2022-08-14T00:33:52.294Z,16.35
2022-08-14T00:36:36.735Z,16.15
2022-08-14T00:39:14.998Z,16.30
2022-08-14T00:41:46.553Z,16.26
2022-08-14T00:44:14.711Z,16.19
2022-08-14T00:46:50.468Z,16.24
2022-08-14T00:49:21.124Z,16.11
2022-08-14T00:51:52.240Z,16.23
2022-08-14T00:54:21.998Z,16.21
2022-08-14T00:56:55.357Z,16.19
2022-08-14T00:59:25.108Z,16.05
2022-08-14T01:01:54.971Z,16.15
2022-08-14T01:04:51.912Z,16.15
2022-08-14T01:07:20.893Z,16.11
2022-08-14T01:09:50.777Z,16.10
2022-08-14T01:12:26.332Z,16.03
2022-08-14T01:14:58.279Z,15.88
2022-08-14T01:17:49.610Z,16.03
2022-08-14T01:20:50.914Z,16.01
2022-08-14T01:23:21.805Z,15.95
2022-08-14T01:25:51.867Z,15.93
2022-08-14T01:28:46.336Z,15.87
2022-08-14T01:31:12.414Z,15.89
2022-08-14T01:33:59.347Z,15.86
2022-08-14T01:36:36.726Z,15.77
2022-08-14T01:39:12.914Z,15.83
2022-08-14T01:41:43.379Z,15.81
2022-08-14T01:44:33.562Z,15.78
2022-08-14T01:47:09.596Z,15.76
2022-08-14T01:49:45.962Z,15.73
2022-08-14T01:52:33.568Z,15.71
2022-08-14T01:55:03.885Z,15.70
2022-08-14T01:58:00.640Z,15.69
2022-08-14T02:00:27.690Z,15.66
2022-08-14T02:02:57.093Z,15.67
2022-08-14T02:05:29.366Z,15.66
2022-08-14T02:08:09.798Z,15.65
2022-08-14T02:10:46.626Z,15.65
2022-08-14T02:13:19.064Z,15.51
2022-08-14T02:15:48.419Z,15.61
2022-08-14T02:18:18.196Z,15.45
2022-08-14T02:20:48.659Z,15.57
2022-08-14T02:23:16.467Z,15.55
2022-08-14T02:25:54.341Z,15.15
2022-08-14T02:28:58.306Z,15.57
2022-08-14T02:31:12.215Z,15.56
2022-08-14T02:33:43.310Z,15.56
2022-08-14T02:37:04.720Z,15.56
2022-08-14T02:39:00.654Z,15.48
2022-08-14T02:41:31.839Z,15.55
2022-08-14T02:44:06.517Z,15.40
2022-08-14T02:46:36.158Z,15.50
2022-08-14T02:49:08.915Z,15.45
2022-08-14T02:51:39.251Z,15.43
2022-08-14T02:54:08.310Z,15.42
2022-08-14T02:57:16.476Z,15.42
2022-08-14T02:59:28.806Z,15.40
2022-08-14T03:01:57.343Z,15.40
2022-08-14T03:04:28.852Z,15.39
2022-08-14T03:07:07.408Z,15.37
2022-08-14T03:10:25.142Z,15.38
2022-08-14T03:12:30.752Z,15.37
2022-08-14T03:15:00.426Z,15.37
2022-08-14T03:17:31.901Z,15.35
2022-08-14T03:20:11.776Z,15.33
2022-08-14T03:22:42.071Z,15.31
2022-08-14T03:25:12.082Z,15.30
2022-08-14T03:27:48.585Z,15.20
2022-08-14T03:30:39.105Z,15.25
2022-08-14T03:33:12.116Z,15.13
2022-08-14T03:36:07.625Z,15.23
2022-08-14T03:39:16.104Z,14.94
2022-08-14T03:41:20.202Z,15.19
2022-08-14T03:43:57.724Z,15.18
2022-08-14T03:46:38.976Z,15.16
2022-08-14T03:49:29.273Z,15.13
2022-08-14T03:52:01.081Z,15.05
2022-08-14T03:54:30.038Z,15.14
2022-08-14T03:57:02.787Z,14.97
2022-08-14T03:59:33.987Z,15.16
2022-08-14T04:02:04.748Z,15.14
2022-08-14T04:04:53.270Z,15.15
2022-08-14T04:07:22.374Z,14.94
2022-08-14T04:09:50.171Z,15.14
2022-08-14T04:12:26.440Z,15.14
2022-08-14T04:14:56.308Z,14.86
2022-08-14T04:17:24.071Z,15.15
2022-08-14T04:19:51.997Z,15.13
2022-08-14T04:22:20.560Z,15.15
2022-08-14T04:24:50.316Z,15.13
2022-08-14T04:27:18.788Z,15.14
2022-08-14T04:29:46.536Z,15.00
2022-08-14T04:33:02.615Z,15.17
2022-08-14T04:35:07.722Z,15.18
2022-08-14T04:37:56.439Z,15.19
2022-08-14T04:40:42.086Z,15.22
2022-08-14T04:43:38.498Z,15.25
2022-08-14T04:46:09.489Z,15.28
2022-08-14T04:48:43.707Z,15.32
2022-08-14T04:51:20.406Z,15.35
2022-08-14T04:53:50.151Z,15.54
2022-08-14T04:56:30.456Z,15.85
2022-08-14T04:59:10.630Z,16.13
2022-08-14T05:01:45.241Z,16.85
2022-08-14T05:04:20.191Z,17.50
2022-08-14T05:06:49.686Z,18.04
2022-08-14T05:09:21.842Z,18.51
2022-08-14T05:11:51.309Z,18.70
2022-08-14T05:14:46.730Z,19.03
2022-08-14T05:17:10.556Z,19.68
2022-08-14T05:19:44.941Z,20.02
2022-08-14T05:22:28.778Z,20.45
2022-08-14T05:24:56.549Z,20.75
2022-08-14T05:27:24.317Z,21.23
2022-08-14T05:29:56.685Z,21.74
2022-08-14T05:32:27.374Z,22.08
2022-08-14T05:34:59.114Z,22.58
2022-08-14T05:37:28.706Z,22.92
2022-08-14T05:39:59.178Z,23.30
2022-08-14T05:42:29.396Z,23.72
2022-08-14T05:45:00.323Z,24.15
2022-08-14T05:47:28.902Z,24.42
2022-08-14T05:50:03.344Z,25.39
2022-08-14T05:52:39.175Z,26.03
2022-08-14T05:55:09.462Z,26.45
2022-08-14T05:57:47.663Z,27.28
2022-08-14T06:00:28.192Z,27.93
2022-08-14T06:02:58.511Z,28.62
2022-08-14T06:05:30.337Z,29.25
2022-08-14T06:07:59.162Z,29.75
2022-08-14T06:10:28.728Z,30.18
2022-08-14T06:12:58.241Z,30.42
2022-08-14T06:15:29.959Z,31.40
2022-08-14T06:17:59.879Z,32.11
2022-08-14T06:20:31.323Z,32.74
2022-08-14T06:23:06.347Z,33.55
2022-08-14T06:25:36.827Z,34.11
2022-08-14T06:28:05.260Z,34.73
2022-08-14T06:30:57.222Z,35.55
2022-08-14T06:33:30.167Z,36.15
2022-08-14T06:36:18.278Z,36.69
2022-08-14T06:38:46.406Z,37.16
2022-08-14T06:49:16.598Z,39.38
2022-08-14T06:52:54.642Z,39.88
2022-08-14T06:56:21.255Z,40.24
2022-08-14T07:00:27.290Z,41.14
2022-08-14T07:07:17.234Z,42.34
2022-08-14T07:09:50.713Z,42.50
2022-08-14T07:12:54.653Z,43.10
2022-08-14T07:15:07.896Z,42.82
2022-08-14T07:17:36.496Z,42.59
2022-08-14T07:20:07.202Z,42.49
2022-08-14T07:22:55.976Z,43.00
2022-08-14T07:25:32.814Z,43.50
2022-08-14T07:28:01.533Z,43.80
2022-08-14T07:30:33.767Z,44.04
2022-08-14T07:33:02.891Z,44.72
2022-08-14T07:35:37.525Z,45.09
2022-08-14T07:38:20.234Z,45.21
2022-08-14T07:40:52.926Z,45.78
2022-08-14T07:43:21.638Z,46.45
2022-08-14T07:45:50.953Z,46.99
2022-08-14T07:48:25.288Z,47.49
2022-08-14T07:50:59.477Z,47.94
2022-08-14T07:53:36.648Z,48.33
2022-08-14T07:56:44.492Z,48.62
2022-08-14T07:58:58.793Z,48.87
2022-08-14T08:01:30.773Z,49.33
2022-08-14T08:04:00.313Z,49.92
2022-08-14T08:06:30.081Z,50.44
2022-08-14T08:09:03.212Z,50.84
2022-08-14T08:11:37.444Z,50.52
2022-08-14T08:14:16.516Z,50.68
2022-08-14T08:16:47.196Z,51.02
2022-08-14T08:19:18.765Z,51.33
2022-08-14T08:21:47.678Z,51.35
2022-08-14T08:24:19.925Z,51.33
2022-08-14T08:26:50.635Z,51.60
2022-08-14T08:29:28.360Z,51.22
2022-08-14T08:32:01.870Z,50.49
2022-08-14T08:34:45.308Z,51.01
2022-08-14T08:37:14.336Z,51.32
2022-08-14T08:40:02.265Z,51.35
2022-08-14T08:42:38.222Z,51.97
2022-08-14T08:45:11.865Z,52.51
2022-08-14T08:47:41.040Z,52.54
2022-08-14T08:50:23.425Z,52.43
2022-08-14T08:53:02.158Z,52.85
2022-08-14T08:55:33.933Z,53.62
2022-08-14T08:58:12.448Z,53.54
2022-08-14T09:00:54.129Z,53.22
2022-08-14T09:03:25.625Z,53.53
2022-08-14T09:05:58.682Z,53.63
2022-08-14T09:08:31.299Z,54.18
2022-08-14T09:11:02.987Z,54.87
2022-08-14T09:13:50.404Z,54.78
2022-08-14T09:16:21.882Z,54.86
2022-08-14T09:18:53.281Z,55.04
2022-08-14T09:21:23.806Z,55.26
2022-08-14T09:24:29.599Z,54.84
2022-08-14T09:26:43.975Z,54.42
2022-08-14T09:29:23.240Z,54.61
2022-08-14T09:31:57.680Z,55.05
2022-08-14T09:34:58.458Z,55.22
2022-08-14T09:37:41.740Z,55.32
2022-08-14T09:40:21.991Z,54.82
2022-08-14T09:42:58.423Z,54.42
2022-08-14T09:45:39.996Z,54.88
2022-08-14T09:48:27.582Z,55.45
2022-08-14T09:54:18.168Z,55.75
2022-08-14T09:56:30.398Z,55.22
2022-08-14T09:59:01.157Z,55.22
2022-08-14T10:01:37.660Z,55.23
2022-08-14T10:04:32.842Z,55.15
2022-08-14T10:07:04.942Z,55.35
2022-08-14T10:09:35.043Z,55.69
2022-08-14T10:12:05.049Z,56.06
2022-08-14T10:14:53.391Z,56.25
2022-08-14T10:17:38.464Z,56.00
2022-08-14T10:20:39.380Z,54.89
2022-08-14T10:23:12.708Z,54.32
2022-08-14T10:25:46.316Z,53.28
2022-08-14T10:28:51.597Z,53.64
2022-08-14T10:31:03.564Z,54.28
2022-08-14T10:33:34.188Z,54.61
2022-08-14T10:36:02.725Z,53.84
2022-08-14T10:38:33.712Z,53.27
2022-08-14T10:41:13.200Z,53.09
2022-08-14T10:43:42.872Z,53.96
2022-08-14T10:47:37.357Z,53.99
2022-08-14T10:49:05.141Z,54.13
2022-08-14T10:51:39.887Z,54.73
2022-08-14T10:54:26.085Z,54.76
2022-08-14T10:56:59.986Z,53.84
2022-08-14T10:59:43.401Z,51.25
2022-08-14T11:02:44.864Z,50.54
2022-08-14T11:05:14.829Z,52.28
2022-08-14T11:07:57.176Z,52.38
2022-08-14T11:10:42.769Z,53.01
2022-08-14T11:13:12.054Z,54.04
2022-08-14T11:15:41.033Z,54.59
2022-08-14T11:18:08.837Z,55.31
2022-08-14T11:20:54.142Z,54.77
2022-08-14T11:23:37.727Z,54.10
2022-08-14T11:26:10.330Z,53.73
2022-08-14T11:28:47.832Z,53.44
2022-08-14T11:31:19.726Z,53.53
2022-08-14T11:33:51.149Z,52.94
2022-08-14T11:36:24.363Z,51.64
2022-08-14T11:39:33.725Z,51.23
2022-08-14T11:42:57.102Z,49.82
2022-08-14T11:44:53.839Z,47.69
2022-08-14T11:47:24.673Z,45.86
2022-08-14T11:49:53.226Z,44.71
2022-08-14T12:04:53.178Z,38.45
2022-08-14T12:07:24.798Z,37.72
2022-08-14T12:09:56.381Z,37.36
2022-08-14T12:13:03.457Z,36.45
2022-08-14T12:15:36.280Z,35.11
2022-08-14T12:18:06.775Z,34.30
2022-08-14T12:21:00.155Z,34.70
2022-08-14T12:23:51.843Z,36.01
2022-08-14T12:26:39.178Z,34.51
2022-08-14T12:29:13.200Z,35.33
2022-08-14T12:31:44.898Z,35.66
2022-08-14T12:34:20.613Z,35.13
2022-08-14T12:36:51.460Z,35.60
2022-08-14T12:39:23.843Z,35.52
2022-08-14T12:41:57.315Z,35.30
2022-08-14T12:44:54.379Z,35.26
2022-08-14T12:47:31.265Z,35.32
2022-08-14T12:49:59.475Z,35.17
2022-08-14T12:52:42.921Z,34.91
2022-08-14T12:58:29.273Z,34.27
2022-08-14T13:01:16.634Z,34.34
2022-08-14T13:03:47.963Z,34.29
2022-08-14T13:06:20.351Z,34.17
2022-08-14T13:08:53.202Z,34.23
2022-08-14T13:11:25.540Z,34.26
2022-08-14T13:13:59.567Z,34.39
2022-08-14T13:16:37.748Z,34.38
2022-08-14T13:19:11.075Z,34.35
2022-08-14T13:22:05.047Z,34.23
2022-08-14T13:24:39.993Z,34.12
2022-08-14T13:27:11.130Z,33.88
2022-08-14T13:29:46.471Z,33.69
2022-08-14T13:32:16.336Z,33.55
2022-08-14T13:35:17.479Z,33.15
2022-08-14T13:37:54.165Z,33.36
2022-08-14T13:40:29.810Z,33.34
2022-08-14T13:42:59.512Z,33.24
2022-08-14T13:45:59.722Z,33.06
2022-08-14T13:48:30.715Z,32.92
2022-08-14T13:51:03.848Z,32.83
2022-08-14T13:53:41.477Z,32.86
2022-08-14T13:56:14.945Z,32.57
2022-08-14T13:59:07.112Z,32.88
2022-08-14T14:01:42.860Z,32.98
2022-08-14T14:04:19.213Z,32.97
2022-08-14T14:06:51.188Z,32.72
2022-08-14T14:09:43.914Z,33.00
2022-08-14T14:12:37.534Z,33.04
2022-08-14T14:15:17.793Z,32.98
2022-08-14T14:18:15.321Z,32.74
2022-08-14T14:23:57.260Z,32.89
2022-08-14T14:26:25.715Z,32.94
2022-08-14T14:28:57.112Z,33.00
2022-08-14T14:31:30.247Z,32.99
2022-08-14T14:34:00.993Z,33.29
2022-08-14T14:36:36.406Z,33.28
2022-08-14T14:39:07.471Z,33.15
2022-08-14T14:41:43.692Z,33.00
2022-08-14T14:44:15.873Z,33.11
2022-08-14T14:46:51.038Z,33.15
2022-08-14T14:49:25.899Z,33.03
2022-08-14T14:52:23.373Z,32.86
2022-08-14T14:54:56.784Z,32.97
2022-08-14T14:57:30.368Z,32.76
2022-08-14T15:00:06.834Z,32.89
2022-08-14T15:02:42.046Z,32.69
2022-08-14T15:05:18.145Z,32.82
2022-08-14T15:07:54.227Z,33.08
2022-08-14T15:13:33.469Z,32.94
2022-08-14T15:16:01.445Z,32.83
2022-08-14T15:18:36.642Z,32.74
2022-08-14T15:21:07.571Z,32.68
2022-08-14T15:27:09.561Z,32.79
2022-08-14T15:30:06.656Z,32.53
2022-08-14T15:45:25.450Z,33.17
2022-08-14T15:47:55.989Z,33.02
2022-08-14T15:50:26.148Z,33.03
2022-08-14T15:52:54.754Z,32.69
2022-08-14T15:55:23.291Z,32.78
2022-08-14T15:58:03.505Z,32.67
2022-08-14T16:00:54.628Z,32.54
2022-08-14T16:03:35.133Z,32.31
2022-08-14T16:06:05.904Z,32.53
2022-08-14T16:08:42.664Z,32.19
2022-08-14T16:11:17.093Z,31.42
2022-08-14T16:13:47.849Z,31.46
2022-08-14T16:16:48.192Z,31.73
2022-08-14T16:19:11.499Z,32.23
2022-08-14T16:22:01.446Z,31.43
2022-08-14T16:24:35.961Z,31.43
2022-08-14T16:27:37.071Z,30.96
2022-08-14T16:30:24.780Z,30.98
2022-08-14T16:32:59.690Z,31.39
2022-08-14T16:35:43.139Z,31.43
2022-08-14T16:38:48.021Z,31.43
2022-08-14T16:41:26.305Z,31.26
2022-08-14T16:43:59.374Z,31.13
2022-08-14T16:46:28.684Z,31.10
2022-08-14T16:48:59.114Z,31.02
2022-08-14T16:51:27.974Z,30.84
2022-08-14T16:53:58.919Z,30.85
2022-08-14T16:56:30.868Z,30.71
2022-08-14T16:59:07.564Z,30.60
2022-08-14T17:01:36.951Z,30.48
2022-08-14T17:04:14.822Z,30.34
2022-08-14T17:06:54.838Z,30.16
2022-08-14T17:09:29.807Z,30.09
2022-08-14T17:12:07.555Z,29.98
2022-08-14T17:14:51.138Z,29.85
2022-08-14T17:17:21.235Z,29.76
2022-08-14T17:19:59.849Z,29.69
2022-08-14T17:22:50.050Z,29.59
2022-08-14T17:25:22.519Z,29.49
2022-08-14T17:28:52.131Z,29.36
2022-08-14T17:31:02.426Z,29.30
2022-08-14T17:33:33.475Z,29.20
2022-08-14T17:36:20.836Z,29.13
2022-08-14T17:39:06.517Z,29.03
2022-08-14T17:41:38.604Z,28.88
2022-08-14T17:44:33.482Z,28.84
2022-08-14T17:47:13.345Z,28.67
2022-08-14T17:49:52.135Z,28.49
2022-08-14T17:52:34.781Z,28.51
2022-08-14T17:56:03.336Z,28.40
2022-08-14T17:58:01.430Z,28.10
2022-08-14T18:00:51.463Z,28.18
2022-08-14T18:03:50.891Z,28.07
2022-08-14T18:06:39.085Z,27.95
2022-08-14T18:09:00.483Z,27.73
2022-08-14T18:11:45.522Z,27.71
2022-08-14T18:14:32.685Z,26.35
2022-08-14T18:17:04.589Z,27.40
2022-08-14T18:19:36.540Z,27.26
2022-08-14T18:22:31.255Z,27.10
2022-08-14T18:25:02.570Z,26.94
2022-08-14T18:27:36.157Z,26.54
2022-08-14T18:30:32.009Z,26.48
2022-08-14T18:32:55.425Z,26.45
2022-08-14T18:35:45.707Z,26.28
2022-08-14T18:38:26.147Z,26.03
2022-08-14T18:41:36.424Z,25.96
2022-08-14T18:44:10.182Z,25.13
2022-08-14T18:47:17.316Z,25.65
2022-08-14T18:50:01.120Z,25.45
2022-08-14T18:52:45.785Z,25.19
2022-08-14T18:55:55.842Z,25.13
2022-08-14T18:58:34.153Z,24.98
2022-08-14T19:01:04.536Z,24.68
2022-08-14T19:03:48.762Z,24.70
2022-08-14T19:06:16.892Z,24.58
2022-08-14T19:08:47.168Z,24.30
2022-08-14T19:11:50.394Z,24.30
2022-08-14T19:14:47.535Z,24.13
2022-08-14T19:18:13.845Z,23.94
2022-08-14T19:20:47.450Z,23.73
2022-08-14T19:23:18.414Z,23.60
2022-08-14T19:25:52.739Z,23.58
2022-08-14T19:28:30.823Z,23.45
2022-08-14T19:31:42.393Z,23.31
2022-08-14T19:34:40.400Z,23.18
2022-08-14T19:37:47.445Z,22.86
2022-08-14T19:40:30.033Z,22.93
2022-08-14T19:42:58.536Z,22.59
2022-08-14T19:45:30.071Z,22.74
2022-08-14T19:48:05.257Z,22.63
2022-08-14T19:50:40.250Z,22.50
2022-08-14T19:53:12.081Z,22.41
2022-08-14T19:55:47.186Z,22.18
2022-08-14T19:58:16.439Z,22.28
2022-08-14T20:00:55.842Z,22.18
2022-08-14T20:03:26.284Z,22.06
2022-08-14T20:06:14.378Z,21.84
2022-08-14T20:10:58.747Z,21.84
2022-08-14T20:11:58.508Z,21.77
2022-08-14T20:14:29.900Z,21.66
2022-08-14T20:17:06.339Z,21.59
2022-08-14T20:19:37.766Z,21.24
2022-08-14T20:22:37.218Z,21.16
2022-08-14T20:25:11.479Z,21.34
2022-08-14T20:27:44.083Z,21.27
2022-08-14T20:30:34.513Z,21.14
2022-08-14T20:33:07.687Z,21.13
2022-08-14T20:35:43.474Z,21.08
2022-08-14T20:38:30.273Z,21.04
2022-08-14T20:41:01.774Z,20.96
2022-08-14T20:43:53.721Z,20.77
2022-08-14T20:46:29.631Z,20.83
2022-08-14T20:49:00.003Z,20.65
2022-08-14T20:51:37.126Z,20.71
2022-08-14T20:54:07.517Z,20.65
2022-08-14T20:56:38.206Z,20.60
2022-08-14T20:59:18.058Z,20.55
2022-08-14T21:01:51.917Z,20.49
2022-08-14T21:04:31.440Z,20.46
2022-08-14T21:07:24.775Z,20.41
2022-08-14T21:10:06.492Z,20.33
2022-08-14T21:13:25.395Z,20.21
2022-08-14T21:15:40.401Z,20.21
2022-08-14T21:18:13.795Z,20.17
2022-08-14T21:20:46.258Z,19.65
2022-08-14T21:23:15.967Z,20.06
2022-08-14T21:25:45.661Z,19.90
2022-08-14T21:28:29.296Z,19.97
2022-08-14T21:30:58.565Z,19.89
2022-08-14T21:33:27.871Z,19.71
2022-08-14T21:36:00.122Z,19.78
2022-08-14T21:38:37.303Z,19.72
2022-08-14T21:41:42.506Z,19.67
2022-08-14T21:44:05.272Z,19.64
2022-08-14T21:46:50.047Z,19.20
2022-08-14T21:49:22.742Z,19.56
2022-08-14T21:51:57.800Z,19.52
2022-08-14T21:54:49.684Z,19.01
2022-08-14T21:57:56.652Z,19.40
2022-08-14T22:00:31.578Z,19.34
2022-08-14T22:03:03.422Z,19.11
2022-08-14T22:05:33.106Z,19.13
2022-08-14T22:08:03.122Z,19.21
2022-08-14T22:10:33.770Z,19.18
2022-08-14T22:13:02.280Z,19.15
2022-08-14T22:15:33.465Z,19.12
2022-08-14T22:18:04.003Z,18.91
2022-08-14T22:20:36.278Z,19.08
2022-08-14T22:23:08.500Z,19.06
2022-08-14T22:25:41.216Z,19.04
2022-08-14T22:28:14.680Z,19.03
2022-08-14T22:30:44.614Z,18.85
2022-08-14T22:33:13.294Z,18.99
2022-08-14T22:35:43.970Z,18.99
2022-08-14T22:38:36.991Z,18.93
2022-08-14T22:41:25.708Z,18.98
2022-08-14T22:43:50.941Z,18.98
2022-08-14T22:46:20.135Z,18.97
2022-08-14T22:48:49.704Z,18.98
2022-08-14T22:51:23.270Z,18.97
2022-08-14T22:53:53.996Z,18.69
2022-08-14T22:56:30.188Z,18.46
2022-08-14T22:59:01.414Z,18.93
2022-08-14T23:01:55.621Z,18.52
2022-08-14T23:04:34.381Z,18.93
2022-08-14T23:07:21.645Z,18.92
2022-08-14T23:09:55.814Z,18.91
2022-08-14T23:12:28.080Z,18.91
2022-08-14T23:14:57.515Z,18.90
2022-08-14T23:17:25.679Z,18.89
2022-08-14T23:19:56.202Z,18.87
2022-08-14T23:22:26.476Z,18.85
2022-08-14T23:24:56.747Z,18.81
2022-08-14T23:27:31.647Z,18.80
2022-08-14T23:30:00.066Z,18.78
2022-08-14T23:32:30.141Z,18.68
2022-08-14T23:35:00.683Z,18.78
2022-08-14T23:37:31.183Z,18.77
2022-08-14T23:39:59.850Z,18.76
2022-08-14T23:42:40.006Z,18.76
2022-08-14T23:45:09.750Z,18.74
2022-08-14T23:47:51.749Z,18.39
2022-08-14T23:50:34.196Z,18.68
2022-08-14T23:53:07.100Z,18.72
2022-08-14T23:55:35.742Z,18.52
2022-08-14T23:58:10.139Z,18.78
